Time;durP1;ratioP1;P1;durP2;ratioP2;P2;SDS_P1;SDS_P2;PMS_P1;PMS_P2;Temp;Humidity;BMP_temperature;BMP_pressure;BME280_temperature;BME280_humidity;BME280_pressure;Samples;Min_cycle;Max_cycle;Signal;HPM_P1;HPM_P2
2022/12/31 00:01:02;;;;;;;7.33;7.13;;;10.70;99.90;;;;;;5055404;28;20223;-88
2022/12/31 00:11:13;;;;;;;7.37;7.17;;;10.70;99.90;;;;;;5057809;28;20245;-88
2022/12/31 00:35:40;;;;;;;7.83;7.63;;;11.00;99.90;;;;;;4950619;28;20240;-89
2022/12/31 00:39:01;;;;;;;7.77;7.57;;;11.10;99.90;;;;;;5020814;28;20234;-88
2022/12/31 01:01:29;;;;;;;8.00;7.80;;;11.70;99.90;;;;;;5065406;28;20234;-87
2022/12/31 01:04:35;;;;;;;8.27;8.07;;;11.70;99.90;;;;;;5065554;28;20230;-88
2022/12/31 01:14:37;;;;;;;8.30;8.10;;;11.70;99.90;;;;;;5065520;28;20230;-87
2022/12/31 01:21:39;;;;;;;8.20;8.00;;;11.80;99.90;;;;;;5022200;28;20313;-87
2022/12/31 01:27:47;;;;;;;8.10;7.90;;;11.70;99.90;;;;;;5056020;28;20222;-88
2022/12/31 01:30:23;;;;;;;8.23;8.03;;;11.80;99.90;;;;;;5063383;28;20298;-87
2022/12/31 01:32:55;;;;;;;8.10;7.90;;;11.90;99.90;;;;;;5070997;28;20226;-87
2022/12/31 01:35:57;;;;;;;8.40;8.20;;;12.00;99.90;;;;;;5067065;28;20227;-88
2022/12/31 01:39:01;;;;;;;8.60;8.40;;;12.00;99.90;;;;;;5069800;28;20231;-87
2022/12/31 02:06:03;;;;;;;7.67;7.47;;;12.10;99.90;;;;;;5122440;27;20225;-88
2022/12/31 02:12:45;;;;;;;7.80;7.60;;;12.00;99.90;;;;;;5142665;27;20216;-88
2022/12/31 02:20:09;;;;;;;7.70;7.50;;;12.00;99.90;;;;;;5159945;22;20335;-86
2022/12/31 02:50:19;;;;;;;7.30;7.10;;;12.00;99.90;;;;;;5069001;28;20234;-87
2022/12/31 02:53:33;;;;;;;7.33;7.13;;;12.00;99.90;;;;;;5080340;28;20265;-88
2022/12/31 03:09:59;;;;;;;7.30;7.10;;;11.90;99.90;;;;;;5059227;28;20234;-88
2022/12/31 03:12:59;;;;;;;7.20;7.00;;;11.90;99.90;;;;;;5062311;28;20231;-88
2022/12/31 03:30:03;;;;;;;7.03;6.83;;;11.80;99.90;;;;;;5078007;28;20276;-88
2022/12/31 03:32:59;;;;;;;7.40;7.20;;;11.70;99.90;;;;;;5085618;28;20266;-88
2022/12/31 03:41:20;;;;;;;7.30;7.10;;;11.70;99.90;;;;;;5081296;28;20226;-88
2022/12/31 03:47:12;;;;;;;7.50;7.30;;;11.70;99.90;;;;;;5081995;28;20244;-89
2022/12/31 04:02:27;;;;;;;8.00;7.80;;;12.20;99.90;;;;;;5079579;28;20261;-88
2022/12/31 04:05:27;;;;;;;8.10;7.90;;;12.10;99.90;;;;;;5080434;28;20230;-88
2022/12/31 04:09:09;;;;;;;7.90;7.70;;;12.20;99.90;;;;;;5080023;28;20230;-88
2022/12/31 04:48:07;;;;;;;8.60;8.40;;;12.40;99.90;;;;;;5036650;28;20224;-88
2022/12/31 04:50:36;;;;;;;8.40;8.20;;;12.40;99.90;;;;;;5123592;22;21113;-85
2022/12/31 04:53:07;;;;;;;8.30;8.10;;;12.50;99.90;;;;;;5105768;28;20244;-85
2022/12/31 04:55:35;;;;;;;8.50;8.30;;;12.50;99.90;;;;;;5109367;28;20230;-85
2022/12/31 04:58:03;;;;;;;8.50;8.30;;;12.50;99.90;;;;;;5112637;28;20256;-84
2022/12/31 05:00:33;;;;;;;8.73;8.53;;;12.50;99.90;;;;;;5113774;28;20236;-85
2022/12/31 05:03:02;;;;;;;8.63;8.43;;;12.60;99.90;;;;;;5117452;28;20237;-85
2022/12/31 05:05:33;;;;;;;8.40;8.20;;;12.60;99.90;;;;;;5116803;28;20285;-84
2022/12/31 05:08:03;;;;;;;8.67;8.47;;;12.50;99.90;;;;;;5120549;27;20221;-84
2022/12/31 05:10:31;;;;;;;8.60;8.40;;;12.60;99.90;;;;;;5119780;28;20230;-84
2022/12/31 05:13:00;;;;;;;8.63;8.43;;;12.60;99.90;;;;;;5119188;28;20216;-85
2022/12/31 05:15:30;;;;;;;8.53;8.33;;;12.60;99.90;;;;;;5117195;28;20232;-85
2022/12/31 05:17:58;;;;;;;8.70;8.50;;;12.50;99.90;;;;;;5117499;28;20260;-84
2022/12/31 05:20:28;;;;;;;8.70;8.50;;;12.50;99.90;;;;;;5118098;28;20222;-85
2022/12/31 05:22:57;;;;;;;8.57;8.37;;;12.40;99.90;;;;;;5118261;28;20209;-84
2022/12/31 05:25:38;;;;;;;8.50;8.30;;;12.40;99.90;;;;;;5117348;28;20213;-84
2022/12/31 05:28:06;;;;;;;8.60;8.40;;;12.30;99.90;;;;;;5118718;28;20217;-84
2022/12/31 05:30:36;;;;;;;8.60;8.40;;;12.30;99.90;;;;;;5118421;28;20284;-84
2022/12/31 05:33:04;;;;;;;8.40;8.20;;;12.20;99.90;;;;;;5119065;27;20218;-85
2022/12/31 05:35:33;;;;;;;8.40;8.20;;;12.10;99.90;;;;;;5119192;28;20255;-84
2022/12/31 05:38:04;;;;;;;8.40;8.20;;;12.10;99.90;;;;;;5118666;28;20228;-84
2022/12/31 05:40:35;;;;;;;8.33;8.13;;;12.00;99.90;;;;;;5119036;28;20221;-84
2022/12/31 05:43:04;;;;;;;8.30;8.10;;;12.00;99.90;;;;;;5118562;28;20226;-85
2022/12/31 05:45:31;;;;;;;8.07;7.87;;;11.90;99.90;;;;;;5118668;27;20214;-85
2022/12/31 05:48:04;;;;;;;8.17;7.97;;;11.90;99.90;;;;;;5118721;28;20245;-85
2022/12/31 05:50:34;;;;;;;8.20;8.00;;;11.90;99.90;;;;;;5118408;28;20221;-85
2022/12/31 05:53:02;;;;;;;8.03;7.83;;;11.80;99.90;;;;;;5118161;28;20217;-85
2022/12/31 05:55:31;;;;;;;8.10;7.90;;;11.80;99.90;;;;;;5117862;28;20214;-85
2022/12/31 05:58:09;;;;;;;8.10;7.90;;;11.80;99.90;;;;;;5118247;28;20229;-84
2022/12/31 06:00:38;;;;;;;8.20;8.00;;;11.80;99.90;;;;;;5116169;28;20229;-85
2022/12/31 06:03:08;;;;;;;8.03;7.83;;;11.80;99.90;;;;;;5114608;28;20245;-85
2022/12/31 06:05:37;;;;;;;8.30;8.10;;;11.90;99.90;;;;;;5102679;28;20229;-85
2022/12/31 06:08:06;;;;;;;8.30;8.10;;;11.90;99.90;;;;;;5102513;28;20252;-85
2022/12/31 06:10:36;;;;;;;8.27;8.07;;;11.90;99.90;;;;;;5103137;28;20230;-85
2022/12/31 06:13:14;;;;;;;8.33;8.13;;;11.90;99.90;;;;;;5102662;28;20245;-85
2022/12/31 06:15:44;;;;;;;8.23;8.03;;;11.90;99.90;;;;;;5101835;28;20245;-85
2022/12/31 06:18:13;;;;;;;8.30;8.10;;;12.00;99.90;;;;;;5102209;28;20221;-85
2022/12/31 06:20:42;;;;;;;8.20;8.00;;;12.00;99.90;;;;;;5101938;28;20252;-85
2022/12/31 06:23:12;;;;;;;8.33;8.13;;;11.90;99.90;;;;;;5102973;28;20226;-85
2022/12/31 06:25:41;;;;;;;8.20;8.00;;;11.90;99.90;;;;;;5103208;28;20229;-85
2022/12/31 06:28:19;;;;;;;8.20;8.00;;;11.80;99.90;;;;;;5103614;28;20283;-85
2022/12/31 06:30:49;;;;;;;8.17;7.97;;;11.80;99.90;;;;;;5106539;28;20237;-85
2022/12/31 06:33:18;;;;;;;8.03;7.83;;;11.80;99.90;;;;;;5106928;28;20248;-85
2022/12/31 06:35:48;;;;;;;7.90;7.70;;;11.80;99.90;;;;;;5106094;28;20241;-85
2022/12/31 06:38:18;;;;;;;8.10;7.90;;;11.80;99.90;;;;;;5105963;28;20225;-85
2022/12/31 06:40:48;;;;;;;8.03;7.83;;;11.80;99.90;;;;;;5106191;28;20256;-85
2022/12/31 06:43:19;;;;;;;8.20;8.00;;;11.80;99.90;;;;;;5106951;28;20240;-85
2022/12/31 06:45:47;;;;;;;8.30;8.10;;;11.80;99.90;;;;;;5110306;28;20229;-85
2022/12/31 06:48:15;;;;;;;8.20;8.00;;;11.90;99.90;;;;;;5108006;28;20234;-85
2022/12/31 06:50:44;;;;;;;8.20;8.00;;;11.90;99.90;;;;;;5112985;28;20272;-85
2022/12/31 06:53:14;;;;;;;8.33;8.13;;;11.90;99.90;;;;;;5108131;28;20225;-85
2022/12/31 06:55:54;;;;;;;8.20;8.00;;;12.00;99.90;;;;;;5106133;28;20263;-85
2022/12/31 06:58:30;;;;;;;8.17;7.97;;;12.00;99.90;;;;;;5105140;28;20259;-85
2022/12/31 07:01:08;;;;;;;8.20;8.00;;;12.10;99.90;;;;;;5104730;28;20305;-85
2022/12/31 07:03:48;;;;;;;8.50;8.30;;;12.10;99.90;;;;;;5105106;28;20321;-85
2022/12/31 07:06:25;;;;;;;8.70;8.50;;;12.20;99.90;;;;;;5104465;28;20324;-85
2022/12/31 07:09:05;;;;;;;8.60;8.40;;;12.20;99.90;;;;;;5105599;28;20229;-85
2022/12/31 07:11:43;;;;;;;8.60;8.40;;;12.30;99.90;;;;;;5111284;28;20225;-85
2022/12/31 07:14:30;;;;;;;8.87;8.67;;;12.40;99.90;;;;;;5111822;28;20328;-85
2022/12/31 07:17:08;;;;;;;8.80;8.60;;;12.50;99.90;;;;;;5109980;28;20229;-85
2022/12/31 07:19:48;;;;;;;8.80;8.60;;;12.50;99.90;;;;;;5107378;28;20233;-84
2022/12/31 07:22:19;;;;;;;9.10;8.80;;;12.60;99.90;;;;;;5106396;28;20233;-85
2022/12/31 07:27:57;;;;;;;9.00;8.70;;;12.70;99.90;;;;;;5105325;28;20226;-85
2022/12/31 07:30:37;;;;;;;9.10;8.80;;;12.80;99.90;;;;;;5106119;28;20300;-85
2022/12/31 07:33:43;;;;;;;9.13;8.83;;;12.90;99.90;;;;;;5105898;28;20325;-85
2022/12/31 07:36:27;;;;;;;9.20;8.90;;;12.90;99.90;;;;;;5105383;28;20221;-86
2022/12/31 07:39:06;;;;;;;8.63;8.43;;;13.00;99.90;;;;;;5105839;28;20229;-85
2022/12/31 07:41:54;;;;;;;8.70;8.50;;;13.10;99.90;;;;;;5106312;28;20225;-85
2022/12/31 07:44:50;;;;;;;8.70;8.50;;;13.10;99.90;;;;;;5107231;28;20206;-86
2022/12/31 07:47:30;;;;;;;8.80;8.60;;;13.20;99.90;;;;;;5105857;28;20226;-86
2022/12/31 07:50:01;;;;;;;8.73;8.53;;;13.20;99.90;;;;;;5104509;28;20327;-86
2022/12/31 07:55:14;;;;;;;9.13;8.83;;;13.30;99.90;;;;;;5103574;28;20241;-85
2022/12/31 07:57:53;;;;;;;9.20;8.90;;;13.30;99.90;;;;;;5104375;28;20324;-85
2022/12/31 08:00:22;;;;;;;9.07;8.77;;;13.40;99.90;;;;;;5104722;28;20244;-85
2022/12/31 08:03:12;;;;;;;9.10;8.80;;;13.40;99.90;;;;;;5103806;28;20299;-85
2022/12/31 08:05:50;;;;;;;9.30;9.00;;;13.50;99.90;;;;;;5104679;28;20213;-85
2022/12/31 08:08:34;;;;;;;9.20;8.90;;;13.50;99.90;;;;;;5104361;28;20229;-85
2022/12/31 08:11:14;;;;;;;9.33;9.03;;;13.60;99.90;;;;;;5103902;28;20249;-85
2022/12/31 08:13:43;;;;;;;9.30;9.00;;;13.70;99.90;;;;;;5104718;28;20880;-85
2022/12/31 08:16:13;;;;;;;9.40;9.10;;;13.80;99.90;;;;;;5103695;28;20237;-86
2022/12/31 08:21:39;;;;;;;9.20;8.90;;;13.90;99.90;;;;;;5103264;28;20229;-85
2022/12/31 08:24:23;;;;;;;9.27;8.97;;;14.00;99.90;;;;;;5104701;28;20232;-85
2022/12/31 08:27:05;;;;;;;9.10;8.80;;;14.00;99.90;;;;;;5104698;28;20225;-85
2022/12/31 08:32:31;;;;;;;9.00;8.70;;;14.10;99.90;;;;;;5102567;28;20485;-85
2022/12/31 08:35:24;;;;;;;9.33;9.03;;;14.20;99.90;;;;;;5103985;28;20240;-85
2022/12/31 08:38:11;;;;;;;9.30;9.00;;;14.20;99.90;;;;;;5104616;28;20271;-85
2022/12/31 08:41:07;;;;;;;9.47;9.17;;;14.40;99.90;;;;;;5104499;28;20222;-85
2022/12/31 08:43:55;;;;;;;9.50;9.20;;;14.50;99.90;;;;;;5104356;28;20268;-85
2022/12/31 08:46:31;;;;;;;9.50;9.20;;;14.60;99.90;;;;;;5103441;28;20239;-85
2022/12/31 08:49:01;;;;;;;9.60;9.30;;;14.60;99.90;;;;;;5110127;28;20217;-85
2022/12/31 08:54:17;;;;;;;9.70;9.40;;;14.70;99.90;;;;;;5104702;28;20296;-85
2022/12/31 08:57:03;;;;;;;9.50;9.20;;;14.60;99.90;;;;;;5106151;28;20233;-85
2022/12/31 08:59:44;;;;;;;9.70;9.40;;;14.60;99.90;;;;;;5104432;28;20268;-85
2022/12/31 09:02:38;;;;;;;9.70;9.40;;;14.60;99.90;;;;;;5104933;28;20776;-85
2022/12/31 09:05:16;;;;;;;9.57;9.27;;;14.60;99.90;;;;;;5104185;28;20229;-85
2022/12/31 09:10:50;;;;;;;9.33;9.03;;;14.60;99.90;;;;;;5103139;28;20237;-86
2022/12/31 09:13:29;;;;;;;9.30;9.00;;;14.60;99.90;;;;;;5103483;28;20225;-86
2022/12/31 09:16:06;;;;;;;9.50;9.20;;;14.60;99.90;;;;;;5103396;28;20233;-86
2022/12/31 09:18:44;;;;;;;9.00;8.73;;;14.70;99.90;;;;;;5104584;28;20225;-85
2022/12/31 09:21:15;;;;;;;8.90;8.70;;;14.80;99.90;;;;;;5118353;28;20222;-85
2022/12/31 09:23:52;;;;;;;8.70;8.50;;;14.80;99.90;;;;;;5104826;28;20275;-85
2022/12/31 09:26:51;;;;;;;9.10;8.80;;;14.80;99.90;;;;;;5104625;28;20300;-86
2022/12/31 09:29:45;;;;;;;9.07;8.80;;;14.90;99.90;;;;;;5102466;28;20257;-85
2022/12/31 09:32:24;;;;;;;9.07;8.80;;;14.80;99.90;;;;;;5101579;28;20244;-85
2022/12/31 09:35:02;;;;;;;9.27;8.97;;;14.90;99.90;;;;;;5101736;28;20229;-85
2022/12/31 09:37:41;;;;;;;9.17;8.87;;;15.00;99.90;;;;;;5102177;28;20237;-85
2022/12/31 09:40:55;;;;;;;9.20;8.90;;;15.00;99.90;;;;;;5101893;28;20229;-85
2022/12/31 09:44:17;;;;;;;9.20;8.90;;;15.00;99.90;;;;;;5103043;28;20232;-85
2022/12/31 09:50:54;;;;;;;9.20;8.90;;;15.10;99.90;;;;;;5101350;28;20302;-85
2022/12/31 09:53:56;;;;;;;8.73;8.52;;;15.10;99.90;;;;;;5103103;28;20281;-86
2022/12/31 09:56:35;;;;;;;9.03;8.77;;;15.10;99.90;;;;;;5102890;28;20338;-85
2022/12/31 09:59:15;;;;;;;8.90;8.70;;;15.20;99.90;;;;;;5103112;28;20318;-86
2022/12/31 10:01:51;;;;;;;8.70;8.50;;;15.20;99.90;;;;;;5103683;28;20229;-86
2022/12/31 10:05:08;;;;;;;9.00;8.77;;;15.20;99.90;;;;;;5103255;28;20221;-86
2022/12/31 10:07:52;;;;;;;8.70;8.50;;;15.20;99.90;;;;;;5106885;28;20230;-85
2022/12/31 10:10:24;;;;;;;9.20;8.90;;;15.40;99.90;;;;;;5109031;28;20221;-85
2022/12/31 10:13:36;;;;;;;8.95;8.73;;;15.40;99.90;;;;;;5108142;28;20293;-85
2022/12/31 10:17:05;;;;;;;9.23;8.93;;;15.50;99.90;;;;;;5108426;28;20241;-85
2022/12/31 10:20:10;;;;;;;9.10;8.80;;;15.50;99.90;;;;;;5077418;28;20328;-85
2022/12/31 10:23:14;;;;;;;9.30;9.00;;;15.60;99.90;;;;;;5107773;28;20225;-86
2022/12/31 10:26:21;;;;;;;9.60;9.30;;;15.70;99.90;;;;;;5108249;28;20252;-85
2022/12/31 10:29:00;;;;;;;9.25;8.95;;;15.80;99.90;;;;;;5107380;28;20293;-86
2022/12/31 10:31:46;;;;;;;9.60;9.30;;;15.90;99.90;;;;;;5108427;28;20271;-85
2022/12/31 10:37:11;;;;;;;9.70;9.40;;;15.90;99.90;;;;;;5107513;28;20231;-85
2022/12/31 10:39:58;;;;;;;9.63;9.32;;;15.90;99.90;;;;;;5108582;28;20241;-85
2022/12/31 10:43:20;;;;;;;9.38;9.07;;;15.80;99.90;;;;;;5108697;28;20253;-86
2022/12/31 10:46:33;;;;;;;9.60;9.30;;;15.70;99.90;;;;;;5097678;28;20289;-85
2022/12/31 10:52:26;;;;;;;9.70;9.40;;;15.70;99.90;;;;;;5181244;22;20279;-88
2022/12/31 10:55:46;;;;;;;9.65;9.35;;;15.70;99.90;;;;;;5115260;28;20248;-88
2022/12/31 10:59:30;;;;;;;9.43;9.13;;;15.90;99.90;;;;;;5099821;28;20278;-87
2022/12/31 11:06:57;;;;;;;9.20;8.90;;;15.90;99.90;;;;;;5059796;28;20214;-88
2022/12/31 11:10:23;;;;;;;9.60;9.30;;;15.90;99.90;;;;;;5091312;28;20292;-88
2022/12/31 11:13:41;;;;;;;9.57;9.27;;;16.00;99.90;;;;;;5083122;28;20245;-88
2022/12/31 11:27:44;;;;;;;9.40;9.10;;;15.90;99.90;;;;;;5080407;28;20206;-87
2022/12/31 11:37:36;;;;;;;9.45;9.15;;;16.00;99.90;;;;;;5085652;28;20230;-87
2022/12/31 11:57:46;;;;;;;9.40;9.10;;;16.60;99.90;;;;;;5023827;28;20222;-87
2022/12/31 12:00:53;;;;;;;;;;;;;;;;;;;;;
2022/12/31 12:10:02;;;;;;;9.75;9.45;;;17.30;99.90;;;;;;5072754;28;20238;-87
2022/12/31 12:13:11;;;;;;;9.90;9.60;;;17.40;99.90;;;;;;5100022;28;20241;-87
2022/12/31 12:18:54;;;;;;;9.55;9.25;;;17.40;99.90;;;;;;5100164;28;20198;-87
2022/12/31 12:21:32;;;;;;;9.38;9.07;;;17.40;99.90;;;;;;5100660;28;20237;-86
2022/12/31 12:24:14;;;;;;;9.60;9.30;;;17.50;99.90;;;;;;5098300;28;20245;-88
2022/12/31 12:26:48;;;;;;;9.45;9.15;;;17.50;99.90;;;;;;5084226;28;20341;-88
2022/12/31 12:29:46;;;;;;;9.50;9.20;;;17.50;99.90;;;;;;5079558;28;20226;-88
2022/12/31 12:36:10;;;;;;;9.68;9.38;;;17.50;99.90;;;;;;5077148;28;20241;-87
2022/12/31 12:38:41;;;;;;;9.70;9.40;;;17.50;99.90;;;;;;5079672;28;20233;-87
2022/12/31 12:41:19;;;;;;;9.43;9.13;;;17.50;99.90;;;;;;5078856;28;20226;-87
2022/12/31 12:46:49;;;;;;;9.10;8.80;;;17.50;99.90;;;;;;5078285;28;20280;-88
2022/12/31 12:56:57;;;;;;;9.55;9.25;;;17.40;99.90;;;;;;5082557;28;20237;-88
2022/12/31 13:00:42;;;;;;;9.75;9.45;;;17.50;99.90;;;;;;5080540;28;20245;-88
2022/12/31 13:07:27;;;;;;;9.38;9.07;;;17.40;99.90;;;;;;5004484;28;20231;-87
2022/12/31 13:10:31;;;;;;;9.23;8.93;;;17.40;99.90;;;;;;5078419;28;20237;-87
2022/12/31 13:13:25;;;;;;;9.60;9.30;;;17.30;99.90;;;;;;5078800;28;20257;-87
2022/12/31 13:22:11;;;;;;;9.30;9.00;;;17.30;99.90;;;;;;5087032;28;20218;-86
2022/12/31 13:25:44;;;;;;;;;;;;;;;;;;;;;
2022/12/31 13:35:47;;;;;;;9.50;9.20;;;17.40;99.90;;;;;;5079757;28;20234;-86
2022/12/31 13:41:57;;;;;;;9.32;9.02;;;17.40;99.90;;;;;;5078150;28;20226;-87
2022/12/31 13:48:28;;;;;;;9.43;9.13;;;17.50;99.90;;;;;;5078172;28;20222;-87
2022/12/31 13:51:06;;;;;;;9.48;9.18;;;17.50;99.90;;;;;;5074038;28;20287;-87
2022/12/31 13:57:24;;;;;;;9.50;9.20;;;17.50;99.90;;;;;;5059335;28;20261;-89
2022/12/31 14:00:03;;;;;;;9.68;9.38;;;17.40;99.90;;;;;;5059496;28;20714;-87
2022/12/31 14:02:48;;;;;;;9.38;9.07;;;17.40;99.90;;;;;;5059775;28;20234;-87
2022/12/31 14:08:22;;;;;;;9.80;9.50;;;17.20;99.90;;;;;;5079459;28;20274;-87
2022/12/31 14:11:08;;;;;;;9.60;9.30;;;17.10;99.90;;;;;;5078481;28;21079;-86
2022/12/31 14:17:03;;;;;;;9.60;9.30;;;17.10;99.90;;;;;;5061826;28;20238;-87
2022/12/31 14:19:59;;;;;;;9.30;9.00;;;17.10;99.90;;;;;;5059960;28;20241;-88
2022/12/31 14:23:02;;;;;;;9.25;8.95;;;17.10;99.90;;;;;;5058845;28;20250;-88
2022/12/31 14:25:40;;;;;;;9.15;8.85;;;17.00;99.90;;;;;;5058559;28;20234;-88
2022/12/31 14:28:26;;;;;;;9.23;8.93;;;17.00;99.90;;;;;;5058463;28;20294;-87
2022/12/31 14:31:12;;;;;;;9.25;8.95;;;16.90;99.90;;;;;;5059905;28;20231;-87
2022/12/31 14:36:55;;;;;;;9.23;8.93;;;16.70;99.90;;;;;;5056797;28;20246;-88
2022/12/31 14:42:55;;;;;;;9.10;8.80;;;16.70;99.90;;;;;;5074504;28;20206;-88
2022/12/31 14:45:44;;;;;;;8.95;8.70;;;16.60;99.90;;;;;;5078532;28;20215;-86
2022/12/31 14:51:25;;;;;;;9.10;8.80;;;16.30;99.90;;;;;;5079617;28;20233;-88
2022/12/31 15:00:05;;;;;;;9.20;8.90;;;16.00;99.90;;;;;;5062200;28;20322;-88
2022/12/31 15:06:09;;;;;;;9.20;8.90;;;15.90;99.90;;;;;;5062997;28;20239;-88
2022/12/31 15:12:16;;;;;;;9.10;8.80;;;15.60;99.90;;;;;;5060622;28;20227;-88
2022/12/31 15:36:19;;;;;;;9.07;8.77;;;14.80;99.90;;;;;;5078317;28;20290;-87
2022/12/31 15:42:48;;;;;;;9.10;8.80;;;14.70;99.90;;;;;;5053427;28;20261;-88
2022/12/31 15:51:51;;;;;;;8.93;8.70;;;14.50;99.90;;;;;;5074145;28;20321;-88
2022/12/31 15:54:36;;;;;;;8.80;8.60;;;14.50;99.90;;;;;;5061885;28;20241;-88
2022/12/31 15:57:24;;;;;;;9.07;8.80;;;14.40;99.90;;;;;;5060850;28;20667;-88
2022/12/31 16:03:06;;;;;;;8.80;8.60;;;14.30;99.90;;;;;;5059922;28;20235;-88
2022/12/31 16:05:37;;;;;;;9.07;8.77;;;14.30;99.90;;;;;;5062850;28;20230;-88
2022/12/31 16:08:39;;;;;;;8.90;8.70;;;14.30;99.90;;;;;;5071632;28;20231;-88
2022/12/31 16:11:29;;;;;;;9.10;8.80;;;14.20;99.90;;;;;;5061680;28;20238;-88
2022/12/31 16:16:52;;;;;;;8.73;8.53;;;14.10;99.90;;;;;;5060087;28;20257;-87
2022/12/31 16:19:52;;;;;;;8.80;8.60;;;14.00;99.90;;;;;;5061168;28;20318;-88
2022/12/31 16:22:44;;;;;;;9.10;8.80;;;14.00;99.90;;;;;;5073241;28;20239;-87
2022/12/31 16:25:55;;;;;;;9.10;8.80;;;13.90;99.90;;;;;;5071531;28;20286;-87
2022/12/31 16:28:35;;;;;;;9.30;9.00;;;13.90;99.90;;;;;;5063874;28;20246;-87
2022/12/31 16:31:15;;;;;;;9.10;8.80;;;13.80;99.90;;;;;;5061322;28;20254;-88
2022/12/31 16:33:54;;;;;;;8.90;8.70;;;13.80;99.90;;;;;;5061319;28;20235;-87
2022/12/31 16:36:30;;;;;;;9.20;8.90;;;13.80;99.90;;;;;;5061046;28;20255;-88
2022/12/31 16:39:40;;;;;;;9.17;8.87;;;13.70;99.90;;;;;;5060635;28;20230;-88
2022/12/31 16:42:38;;;;;;;9.03;8.73;;;13.70;99.90;;;;;;5058998;28;20282;-89
2022/12/31 16:48:30;;;;;;;8.80;8.60;;;13.60;99.90;;;;;;5057556;28;20594;-88
2022/12/31 16:50:59;;;;;;;8.80;8.60;;;13.60;99.90;;;;;;5111575;22;20292;-84
2022/12/31 16:53:31;;;;;;;9.00;8.70;;;13.60;99.90;;;;;;5083301;28;20289;-85
2022/12/31 16:56:07;;;;;;;8.70;8.50;;;13.50;99.90;;;;;;5083132;28;20225;-85
2022/12/31 16:58:47;;;;;;;8.77;8.57;;;13.50;99.90;;;;;;5083246;28;20298;-85
2022/12/31 17:01:18;;;;;;;9.10;8.80;;;13.50;99.90;;;;;;5083072;28;20244;-85
2022/12/31 17:03:53;;;;;;;8.83;8.63;;;13.50;99.90;;;;;;5082981;28;20230;-85
2022/12/31 17:06:24;;;;;;;8.70;8.50;;;13.40;99.90;;;;;;5083190;28;20260;-85
2022/12/31 17:09:13;;;;;;;8.80;8.60;;;13.40;99.90;;;;;;5084303;28;20232;-85
2022/12/31 17:11:49;;;;;;;9.20;8.90;;;13.30;99.90;;;;;;5083544;28;20230;-85
2022/12/31 17:14:27;;;;;;;8.73;8.53;;;13.30;99.90;;;;;;5082941;28;20229;-85
2022/12/31 17:19:43;;;;;;;9.10;8.80;;;13.30;99.90;;;;;;5083759;28;20320;-84
2022/12/31 17:22:21;;;;;;;8.90;8.70;;;13.20;99.90;;;;;;5083837;28;20342;-85
2022/12/31 17:24:50;;;;;;;8.60;8.40;;;13.20;99.90;;;;;;5084449;28;20377;-85
2022/12/31 17:27:21;;;;;;;8.70;8.50;;;13.20;99.90;;;;;;5084285;28;21147;-85
2022/12/31 17:29:52;;;;;;;8.80;8.60;;;13.10;99.90;;;;;;5084066;28;20257;-85
2022/12/31 17:32:37;;;;;;;8.70;8.50;;;13.10;99.90;;;;;;5083405;28;20281;-85
2022/12/31 17:35:33;;;;;;;8.60;8.40;;;13.10;99.90;;;;;;5085797;28;20226;-85
2022/12/31 17:38:38;;;;;;;8.50;8.30;;;13.10;99.90;;;;;;5085695;28;20234;-86
2022/12/31 17:41:24;;;;;;;8.70;8.50;;;13.10;99.90;;;;;;5084886;28;20245;-85
2022/12/31 17:43:55;;;;;;;8.90;8.70;;;13.10;99.90;;;;;;5084657;28;20292;-85
2022/12/31 17:46:33;;;;;;;8.80;8.60;;;13.00;99.90;;;;;;5084783;28;20237;-85
2022/12/31 17:49:02;;;;;;;9.10;8.80;;;13.00;99.90;;;;;;5085325;28;20268;-85
2022/12/31 17:51:33;;;;;;;8.77;8.57;;;13.00;99.90;;;;;;5084971;28;20238;-85
2022/12/31 17:54:01;;;;;;;8.80;8.60;;;13.00;99.90;;;;;;5090867;28;20226;-85
2022/12/31 17:56:31;;;;;;;9.03;8.73;;;13.00;99.90;;;;;;5089864;28;20304;-85
2022/12/31 17:59:00;;;;;;;8.97;8.70;;;13.00;99.90;;;;;;5083266;28;20266;-85
2022/12/31 18:01:41;;;;;;;8.70;8.50;;;13.00;99.90;;;;;;5082155;28;20230;-85
2022/12/31 18:04:17;;;;;;;8.90;8.70;;;13.00;99.90;;;;;;5082825;28;20226;-85
2022/12/31 18:06:47;;;;;;;9.07;8.77;;;13.00;99.90;;;;;;5082424;28;20264;-85
2022/12/31 18:09:15;;;;;;;9.10;8.80;;;13.00;99.90;;;;;;5083842;28;20226;-85
2022/12/31 18:11:45;;;;;;;8.80;8.60;;;12.90;99.90;;;;;;5083274;28;20230;-84
2022/12/31 18:14:16;;;;;;;9.10;8.80;;;12.90;99.90;;;;;;5087498;28;20230;-86
2022/12/31 18:16:55;;;;;;;9.00;8.70;;;12.80;99.90;;;;;;5087725;28;20236;-84
2022/12/31 18:19:22;;;;;;;9.00;8.70;;;12.80;99.90;;;;;;5087872;28;20288;-85
2022/12/31 18:21:51;;;;;;;9.00;8.70;;;12.70;99.90;;;;;;5086019;28;20341;-84
2022/12/31 18:24:21;;;;;;;8.80;8.60;;;12.70;99.90;;;;;;5084784;28;20226;-85
2022/12/31 18:26:50;;;;;;;9.07;8.77;;;12.70;99.90;;;;;;5086010;28;20268;-84
2022/12/31 18:29:20;;;;;;;8.80;8.60;;;12.70;99.90;;;;;;5087413;28;20777;-84
2022/12/31 18:31:58;;;;;;;9.00;8.70;;;12.70;99.90;;;;;;5087663;28;20242;-85
2022/12/31 18:34:27;;;;;;;8.67;8.47;;;12.60;99.90;;;;;;5088082;28;20298;-85
2022/12/31 18:36:57;;;;;;;8.90;8.70;;;12.60;99.90;;;;;;5087771;28;20325;-84
2022/12/31 18:39:26;;;;;;;8.97;8.70;;;12.60;99.90;;;;;;5086932;28;20234;-85
2022/12/31 18:41:56;;;;;;;8.70;8.50;;;12.60;99.90;;;;;;5086022;28;20326;-85
2022/12/31 18:44:25;;;;;;;8.70;8.50;;;12.60;99.90;;;;;;5086546;28;20321;-85
2022/12/31 18:47:04;;;;;;;8.80;8.60;;;12.60;99.90;;;;;;5087125;28;20227;-85
2022/12/31 18:49:34;;;;;;;8.83;8.63;;;12.60;99.90;;;;;;5086957;28;20256;-85
2022/12/31 18:52:03;;;;;;;9.10;8.80;;;12.60;99.90;;;;;;5086606;28;20257;-85
2022/12/31 18:54:32;;;;;;;9.10;8.80;;;12.60;99.90;;;;;;5091410;28;20244;-84
2022/12/31 18:57:02;;;;;;;8.80;8.60;;;12.50;99.90;;;;;;5088724;28;20308;-85
2022/12/31 18:59:32;;;;;;;8.80;8.60;;;12.50;99.90;;;;;;5088251;28;20246;-85
2022/12/31 19:02:03;;;;;;;8.90;8.70;;;12.50;99.90;;;;;;5087273;28;20242;-85
2022/12/31 19:04:31;;;;;;;8.50;8.30;;;12.50;99.90;;;;;;5087440;28;20245;-85
2022/12/31 19:07:01;;;;;;;8.80;8.60;;;12.60;99.90;;;;;;5086379;28;20222;-85
2022/12/31 19:09:29;;;;;;;8.70;8.50;;;12.50;99.90;;;;;;5086297;28;20260;-85
2022/12/31 19:11:58;;;;;;;9.40;9.10;;;12.40;99.90;;;;;;5085812;28;20238;-85
2022/12/31 19:14:29;;;;;;;9.20;8.90;;;12.50;99.90;;;;;;5086857;28;20246;-85
2022/12/31 19:17:00;;;;;;;9.20;8.90;;;12.50;99.90;;;;;;5086839;28;20262;-86
2022/12/31 19:19:29;;;;;;;9.13;8.83;;;12.50;99.90;;;;;;5087676;28;20240;-85
2022/12/31 19:22:07;;;;;;;9.10;8.80;;;12.50;99.90;;;;;;5086030;28;20313;-85
2022/12/31 19:24:35;;;;;;;9.10;8.80;;;12.40;99.90;;;;;;5086339;28;20225;-85
2022/12/31 19:27:05;;;;;;;8.80;8.60;;;12.40;99.90;;;;;;5086044;28;20284;-85
2022/12/31 19:29:42;;;;;;;9.00;8.70;;;12.40;99.90;;;;;;5085589;28;20245;-85
2022/12/31 19:32:11;;;;;;;8.87;8.67;;;12.40;99.90;;;;;;5086089;28;20257;-85
2022/12/31 19:34:50;;;;;;;8.67;8.47;;;12.40;99.90;;;;;;5086061;28;21052;-85
2022/12/31 19:37:19;;;;;;;8.73;8.53;;;12.40;99.90;;;;;;5085792;28;20241;-85
2022/12/31 19:39:48;;;;;;;9.00;8.70;;;12.30;99.90;;;;;;5085214;28;20261;-85
2022/12/31 19:42:20;;;;;;;8.70;8.50;;;12.30;99.90;;;;;;5086282;28;20234;-85
2022/12/31 19:44:50;;;;;;;9.00;8.70;;;12.30;99.90;;;;;;5086359;28;20296;-85
2022/12/31 19:47:18;;;;;;;9.20;8.90;;;12.30;99.90;;;;;;5085559;28;20226;-85
2022/12/31 19:50:00;;;;;;;8.80;8.60;;;12.30;99.90;;;;;;5085268;28;20236;-84
2022/12/31 19:52:27;;;;;;;8.77;8.57;;;12.20;99.90;;;;;;5086370;28;20257;-85
2022/12/31 19:55:07;;;;;;;9.00;8.70;;;12.20;99.90;;;;;;5085653;28;20277;-85
2022/12/31 19:57:35;;;;;;;9.10;8.80;;;12.20;99.90;;;;;;5086089;28;20234;-85
2022/12/31 20:00:04;;;;;;;8.67;8.47;;;12.20;99.90;;;;;;5086105;28;20311;-85
2022/12/31 20:02:33;;;;;;;8.80;8.60;;;12.20;99.90;;;;;;5085998;28;20232;-85
2022/12/31 20:05:12;;;;;;;9.00;8.70;;;12.20;99.90;;;;;;5085870;28;20329;-85
2022/12/31 20:07:42;;;;;;;9.00;8.70;;;12.20;99.90;;;;;;5085950;28;20226;-85
2022/12/31 20:10:10;;;;;;;8.90;8.67;;;12.20;99.90;;;;;;5085645;28;20238;-85
2022/12/31 20:12:39;;;;;;;8.90;8.67;;;12.10;99.90;;;;;;5086076;28;20230;-85
2022/12/31 20:15:08;;;;;;;8.70;8.50;;;12.20;99.90;;;;;;5086155;28;20222;-85
2022/12/31 20:17:39;;;;;;;8.70;8.50;;;12.10;99.90;;;;;;5087068;28;20234;-84
2022/12/31 20:22:54;;;;;;;9.00;8.70;;;12.20;99.90;;;;;;5084372;28;20222;-84
2022/12/31 20:25:24;;;;;;;9.00;8.70;;;12.20;99.90;;;;;;5086894;28;20222;-85
2022/12/31 20:27:54;;;;;;;8.80;8.60;;;12.30;99.90;;;;;;5086807;28;20237;-85
2022/12/31 20:30:25;;;;;;;8.80;8.60;;;12.30;99.90;;;;;;5085958;28;20272;-85
2022/12/31 20:33:01;;;;;;;8.80;8.60;;;12.30;99.90;;;;;;5085895;28;20230;-85
2022/12/31 20:38:18;;;;;;;8.70;8.50;;;12.40;99.90;;;;;;5085733;28;20280;-85
2022/12/31 20:40:48;;;;;;;8.70;8.50;;;12.40;99.90;;;;;;5084985;28;20237;-85
2022/12/31 20:43:16;;;;;;;9.10;8.80;;;12.40;99.90;;;;;;5086166;28;20248;-85